Time;durP1;ratioP1;P1;durP2;ratioP2;P2;SDS_P1;SDS_P2;PMS_P1;PMS_P2;Temp;Humidity;BMP_temperature;BMP_pressure;BME280_temperature;BME280_humidity;BME280_pressure;Samples;Min_cycle;Max_cycle;Signal;HPM_P1;HPM_P2
2024/03/04 05:07:35;;;;;;;0.30;0.30;;;8.90;99.90;;;;;;5185682;23;20296;-54
2024/03/04 05:10:01;;;;;;;3.10;0.90;;;8.90;99.90;;;;;;4843893;29;20177;-57
2024/03/04 05:12:26;;;;;;;0.40;0.40;;;8.90;99.90;;;;;;4851078;29;20199;-57
2024/03/04 05:14:52;;;;;;;0.40;0.40;;;8.90;99.90;;;;;;4861765;29;20677;-56
2024/03/04 05:17:17;;;;;;;0.30;0.30;;;8.90;99.90;;;;;;4845327;29;20233;-57
2024/03/04 05:19:43;;;;;;;0.30;0.30;;;8.90;99.90;;;;;;4862171;29;20595;-57
2024/03/04 05:22:12;;;;;;;0.30;0.30;;;8.90;99.90;;;;;;4862091;29;20172;-57
2024/03/04 05:24:38;;;;;;;0.30;0.30;;;8.90;99.90;;;;;;4853826;29;20185;-56
2024/03/04 05:27:04;;;;;;;0.30;0.30;;;8.90;99.90;;;;;;4843370;29;20567;-57
2024/03/04 05:29:29;;;;;;;2.10;1.03;;;8.90;99.90;;;;;;4843215;29;20189;-58
2024/03/04 05:31:58;;;;;;;0.30;0.30;;;8.90;99.90;;;;;;4843309;29;20415;-55
2024/03/04 05:34:24;;;;;;;0.30;0.30;;;8.90;99.90;;;;;;4843050;29;20188;-59
2024/03/04 05:36:50;;;;;;;0.40;0.40;;;9.00;99.90;;;;;;4841599;29;20261;-52
2024/03/04 05:39:20;;;;;;;0.30;0.30;;;8.90;99.90;;;;;;4843155;29;20217;-54
2024/03/04 05:41:47;;;;;;;2.28;2.17;;;9.00;99.90;;;;;;4827650;29;20215;-56
2024/03/04 05:44:14;;;;;;;0.30;0.30;;;9.00;99.90;;;;;;4843197;29;20269;-54
2024/03/04 05:46:40;;;;;;;0.30;0.30;;;9.00;99.90;;;;;;4842567;29;20666;-57
2024/03/04 05:49:08;;;;;;;0.50;0.50;;;9.00;99.90;;;;;;4843048;29;20226;-57
2024/03/04 05:51:38;;;;;;;0.35;0.35;;;9.00;99.90;;;;;;4843012;29;20948;-56
2024/03/04 05:54:03;;;;;;;0.60;0.60;;;9.00;99.90;;;;;;4841617;29;20216;-56
2024/03/04 05:56:29;;;;;;;0.30;0.30;;;9.00;99.90;;;;;;4842465;29;20292;-56
2024/03/04 05:58:54;;;;;;;0.30;0.30;;;9.00;99.90;;;;;;4843046;29;20524;-56
2024/03/04 06:01:20;;;;;;;0.40;0.40;;;9.00;99.90;;;;;;4851688;29;20250;-53
2024/03/04 06:03:46;;;;;;;0.90;0.90;;;9.00;99.90;;;;;;4861203;29;20247;-56
2024/03/04 06:06:12;;;;;;;0.40;0.40;;;8.90;99.90;;;;;;4860104;29;20508;-53
2024/03/04 06:08:37;;;;;;;0.30;0.30;;;9.00;99.90;;;;;;4861021;29;20188;-55
2024/03/04 06:11:03;;;;;;;0.30;0.30;;;8.90;99.90;;;;;;4860535;29;20195;-57
2024/03/04 06:13:29;;;;;;;0.30;0.30;;;8.90;99.90;;;;;;4861079;29;20192;-57
2024/03/04 06:15:54;;;;;;;0.50;0.50;;;9.00;99.90;;;;;;4860468;29;20209;-53
2024/03/04 06:18:20;;;;;;;0.30;0.30;;;9.00;99.90;;;;;;4860453;29;20180;-55
2024/03/04 06:20:45;;;;;;;0.30;0.30;;;9.00;99.90;;;;;;4860818;29;20208;-55
2024/03/04 06:23:11;;;;;;;0.40;0.40;;;9.00;99.90;;;;;;4860915;29;20264;-57
2024/03/04 06:25:37;;;;;;;0.30;0.30;;;9.00;99.90;;;;;;4852913;29;20200;-54
2024/03/04 06:28:03;;;;;;;1.37;1.27;;;9.00;99.90;;;;;;4842099;29;20291;-56
2024/03/04 06:30:28;;;;;;;0.43;0.40;;;9.00;99.90;;;;;;4842022;29;20271;-57
2024/03/04 06:32:54;;;;;;;0.30;0.30;;;9.00;99.90;;;;;;4842223;29;20215;-56
2024/03/04 06:35:19;;;;;;;0.37;0.37;;;9.00;99.90;;;;;;4841763;29;20181;-57
2024/03/04 06:37:45;;;;;;;0.30;0.30;;;9.00;99.90;;;;;;4845886;29;20184;-58
2024/03/04 06:40:11;;;;;;;2.00;1.23;;;9.10;99.90;;;;;;4842503;29;20177;-59
2024/03/04 06:42:37;;;;;;;0.50;0.47;;;9.10;99.90;;;;;;4842453;29;20537;-60
2024/03/04 06:45:03;;;;;;;0.30;0.30;;;9.10;99.90;;;;;;4841269;29;20182;-59
2024/03/04 06:47:29;;;;;;;0.77;0.77;;;9.10;99.90;;;;;;4842353;29;20554;-60
2024/03/04 06:49:54;;;;;;;0.47;0.47;;;9.10;99.90;;;;;;4848877;29;20188;-59
2024/03/04 06:52:20;;;;;;;0.30;0.30;;;9.10;99.90;;;;;;4844307;29;20188;-60
2024/03/04 06:54:49;;;;;;;0.40;0.40;;;9.10;99.90;;;;;;4841786;29;20247;-60
2024/03/04 06:57:17;;;;;;;0.35;0.35;;;9.20;99.90;;;;;;4846943;29;20581;-60
2024/03/04 06:59:43;;;;;;;0.30;0.30;;;9.20;99.90;;;;;;4859543;29;20244;-61
2024/03/04 07:02:08;;;;;;;0.30;0.30;;;9.20;99.90;;;;;;4848145;29;20265;-61
2024/03/04 07:04:34;;;;;;;0.30;0.30;;;9.20;99.90;;;;;;4841061;29;20268;-60
2024/03/04 07:07:00;;;;;;;0.30;0.30;;;9.20;99.90;;;;;;4840987;29;20278;-61
2024/03/04 07:09:25;;;;;;;0.30;0.30;;;9.20;99.90;;;;;;4841230;29;20190;-60
2024/03/04 07:11:51;;;;;;;0.30;0.30;;;9.20;99.90;;;;;;4825404;29;20186;-60
2024/03/04 07:14:16;;;;;;;0.67;0.67;;;9.20;99.90;;;;;;4842022;29;20552;-60
2024/03/04 07:16:42;;;;;;;0.30;0.30;;;9.10;99.90;;;;;;4841139;29;20268;-61
2024/03/04 07:19:08;;;;;;;0.70;0.70;;;9.20;99.90;;;;;;4842411;29;20184;-60
2024/03/04 07:21:34;;;;;;;0.40;0.40;;;9.20;99.90;;;;;;4841733;29;20187;-60
2024/03/04 07:23:59;;;;;;;0.30;0.30;;;9.20;99.90;;;;;;4825261;29;20335;-61
2024/03/04 07:26:25;;;;;;;0.40;0.40;;;9.10;99.90;;;;;;4841584;29;20552;-60
2024/03/04 07:28:50;;;;;;;0.93;0.93;;;9.10;99.90;;;;;;4842112;29;20708;-60
2024/03/04 07:31:16;;;;;;;0.40;0.40;;;9.10;99.90;;;;;;4825669;29;20185;-61
2024/03/04 07:33:42;;;;;;;0.40;0.40;;;9.10;99.90;;;;;;4841756;29;20212;-59
2024/03/04 07:36:10;;;;;;;0.88;0.88;;;9.10;99.90;;;;;;4840928;29;20722;-60
2024/03/04 07:38:36;;;;;;;0.30;0.30;;;9.10;99.90;;;;;;4841906;29;20268;-59
2024/03/04 07:41:02;;;;;;;0.43;0.43;;;9.20;99.90;;;;;;4825717;29;20580;-60
2024/03/04 07:43:29;;;;;;;0.30;0.30;;;9.10;99.90;;;;;;4841650;29;20185;-59
2024/03/04 07:45:54;;;;;;;0.32;0.32;;;9.10;99.90;;;;;;4824779;29;20693;-60
2024/03/04 07:48:20;;;;;;;0.40;0.40;;;9.10;99.90;;;;;;4841814;29;20202;-59
2024/03/04 07:50:46;;;;;;;0.40;0.40;;;9.10;99.90;;;;;;4841913;29;20185;-60
2024/03/04 07:53:11;;;;;;;0.83;0.83;;;9.10;99.90;;;;;;4841788;29;20189;-61
2024/03/04 07:55:37;;;;;;;0.30;0.30;;;9.10;99.90;;;;;;4841316;29;20284;-60
2024/03/04 07:58:02;;;;;;;0.37;0.37;;;9.10;99.90;;;;;;4841813;29;20177;-60
2024/03/04 08:00:28;;;;;;;0.40;0.40;;;9.20;99.90;;;;;;4845987;29;20233;-60
2024/03/04 08:02:55;;;;;;;0.30;0.30;;;9.20;99.90;;;;;;4863891;29;20186;-59
2024/03/04 08:05:21;;;;;;;0.30;0.30;;;9.20;99.90;;;;;;4862964;29;20181;-60
2024/03/04 08:07:46;;;;;;;0.30;0.30;;;9.20;99.90;;;;;;4863337;29;20540;-60
2024/03/04 08:10:13;;;;;;;0.43;0.43;;;9.20;99.90;;;;;;4863129;29;20184;-60
2024/03/04 08:12:39;;;;;;;1.13;0.70;;;9.20;99.90;;;;;;4863147;29;20185;-60
2024/03/04 08:15:05;;;;;;;0.30;0.30;;;9.20;99.90;;;;;;4862575;29;20552;-60
2024/03/04 08:17:32;;;;;;;0.40;0.40;;;9.20;99.90;;;;;;4863038;29;20368;-59
2024/03/04 08:19:59;;;;;;;0.30;0.30;;;9.30;99.90;;;;;;4863036;29;20172;-60
2024/03/04 08:22:25;;;;;;;0.30;0.30;;;9.30;99.90;;;;;;4863026;29;20164;-60
2024/03/04 08:24:50;;;;;;;0.30;0.30;;;9.30;99.90;;;;;;4862838;29;20177;-60
2024/03/04 08:27:16;;;;;;;0.40;0.40;;;9.30;99.90;;;;;;4861039;29;20632;-60
2024/03/04 08:29:41;;;;;;;0.30;0.30;;;9.30;99.90;;;;;;4863049;29;20260;-59
2024/03/04 08:32:07;;;;;;;0.40;0.40;;;9.30;99.90;;;;;;4863101;29;20181;-60
2024/03/04 08:34:33;;;;;;;0.30;0.30;;;9.40;99.90;;;;;;4862511;29;20189;-60
2024/03/04 08:36:59;;;;;;;0.50;0.50;;;9.40;99.90;;;;;;4862757;29;20564;-59
2024/03/04 08:39:25;;;;;;;0.30;0.30;;;9.40;99.90;;;;;;4862954;29;20177;-60
2024/03/04 08:41:51;;;;;;;0.40;0.40;;;9.40;99.90;;;;;;4862401;29;20652;-59
2024/03/04 08:44:17;;;;;;;0.40;0.40;;;9.50;99.90;;;;;;4862714;29;20501;-60
2024/03/04 08:46:43;;;;;;;0.53;0.53;;;9.50;99.90;;;;;;4862259;29;20203;-60
2024/03/04 08:49:09;;;;;;;0.30;0.30;;;9.50;99.90;;;;;;4862815;29;20660;-60
2024/03/04 08:51:35;;;;;;;0.30;0.30;;;9.50;99.90;;;;;;4862651;29;20457;-60
2024/03/04 08:54:01;;;;;;;1.57;0.90;;;9.50;99.90;;;;;;4862598;29;20210;-60
2024/03/04 08:56:27;;;;;;;0.30;0.30;;;9.50;99.90;;;;;;4845508;29;20565;-61
2024/03/04 08:58:56;;;;;;;0.63;0.63;;;9.40;99.90;;;;;;4827445;29;20426;-59
2024/03/04 09:01:24;;;;;;;0.30;0.30;;;9.40;99.90;;;;;;4844410;29;20208;-61
2024/03/04 09:03:50;;;;;;;0.30;0.30;;;9.40;99.90;;;;;;4843746;29;20189;-59
2024/03/04 09:06:16;;;;;;;3.28;0.73;;;9.50;99.90;;;;;;4843618;29;20222;-60
2024/03/04 09:08:42;;;;;;;0.80;0.80;;;9.50;99.90;;;;;;4844034;29;20393;-60
2024/03/04 09:11:09;;;;;;;0.30;0.30;;;9.40;99.90;;;;;;4860906;29;20212;-59
2024/03/04 09:13:35;;;;;;;1.88;0.82;;;9.50;99.90;;;;;;4861766;29;20189;-59
2024/03/04 09:16:04;;;;;;;0.30;0.30;;;9.50;99.90;;;;;;4861791;29;20565;-59
2024/03/04 09:18:30;;;;;;;0.85;0.85;;;9.50;99.90;;;;;;4862242;29;20176;-60
2024/03/04 09:20:57;;;;;;;0.40;0.40;;;9.60;99.90;;;;;;4862115;29;20288;-60
2024/03/04 09:23:24;;;;;;;1.27;1.20;;;9.60;99.90;;;;;;4861968;29;20657;-61
2024/03/04 09:25:50;;;;;;;0.40;0.40;;;9.60;99.90;;;;;;4861135;29;20288;-59
2024/03/04 09:28:15;;;;;;;0.63;0.63;;;9.60;99.90;;;;;;4862161;29;20269;-62
2024/03/04 09:30:41;;;;;;;0.40;0.40;;;9.60;99.90;;;;;;4861791;29;20184;-60
2024/03/04 09:33:11;;;;;;;0.30;0.30;;;9.70;99.90;;;;;;4861729;29;20248;-59
2024/03/04 09:35:37;;;;;;;0.30;0.30;;;9.70;99.90;;;;;;4856332;29;20233;-60
2024/03/04 09:38:03;;;;;;;0.30;0.30;;;9.80;99.90;;;;;;4843268;29;20526;-60
2024/03/04 09:40:29;;;;;;;0.40;0.40;;;9.80;99.90;;;;;;4843159;29;20191;-61
2024/03/04 09:42:56;;;;;;;0.30;0.30;;;9.80;99.90;;;;;;4843147;29;20407;-60
2024/03/04 09:45:22;;;;;;;0.40;0.40;;;9.90;99.90;;;;;;4842895;29;20471;-59
2024/03/04 09:47:55;;;;;;;0.30;0.30;;;9.90;99.90;;;;;;4843114;29;20423;-59
2024/03/04 09:50:22;;;;;;;0.60;0.60;;;9.90;99.90;;;;;;4843112;29;20425;-60
2024/03/04 09:52:49;;;;;;;1.33;1.33;;;9.90;99.90;;;;;;4843038;29;20918;-60
2024/03/04 09:55:15;;;;;;;0.30;0.30;;;9.80;99.90;;;;;;4826192;29;20451;-60
2024/03/04 09:57:41;;;;;;;0.30;0.30;;;9.80;99.90;;;;;;4843458;29;20463;-60
2024/03/04 10:00:13;;;;;;;0.30;0.30;;;9.80;99.90;;;;;;4842703;29;20514;-60
2024/03/04 10:02:43;;;;;;;0.30;0.30;;;9.90;99.90;;;;;;4842889;29;20180;-60
2024/03/04 10:05:10;;;;;;;0.50;0.50;;;9.90;99.90;;;;;;4857402;29;20423;-60
2024/03/04 10:07:36;;;;;;;0.40;0.40;;;9.90;99.90;;;;;;4860960;29;20496;-60
2024/03/04 10:10:03;;;;;;;0.68;0.65;;;10.00;99.90;;;;;;4861062;29;20849;-60
2024/03/04 10:12:29;;;;;;;0.47;0.47;;;10.10;99.90;;;;;;4861142;29;20224;-61
2024/03/04 10:15:05;;;;;;;0.37;0.37;;;10.10;99.90;;;;;;4860733;29;20450;-60
2024/03/04 10:17:30;;;;;;;0.30;0.30;;;10.20;99.90;;;;;;4860932;29;20223;-60
2024/03/04 10:20:05;;;;;;;0.30;0.30;;;10.20;99.90;;;;;;4860556;29;20832;-62
2024/03/04 10:22:35;;;;;;;0.40;0.40;;;10.20;99.90;;;;;;4861035;29;20202;-60
2024/03/04 10:25:05;;;;;;;0.40;0.40;;;10.30;99.90;;;;;;4860027;29;20783;-59
2024/03/04 10:27:32;;;;;;;0.33;0.33;;;10.40;99.90;;;;;;4860873;29;20459;-61
2024/03/04 10:30:14;;;;;;;2.40;0.60;;;10.60;99.90;;;;;;4860928;29;20430;-60
2024/03/04 10:32:46;;;;;;;0.40;0.40;;;10.70;99.90;;;;;;4860598;29;20419;-61
2024/03/04 10:35:11;;;;;;;0.30;0.30;;;10.80;99.90;;;;;;4823775;29;20897;-60
2024/03/04 10:37:37;;;;;;;0.50;0.50;;;11.00;99.90;;;;;;4824133;29;20441;-60
2024/03/04 10:40:04;;;;;;;0.60;0.50;;;10.90;99.90;;;;;;4824282;29;20180;-60
2024/03/04 10:42:30;;;;;;;0.40;0.40;;;11.00;99.90;;;;;;4824351;29;20207;-58
2024/03/04 10:44:57;;;;;;;0.80;0.80;;;11.00;99.90;;;;;;4829449;29;20425;-59
2024/03/04 10:47:22;;;;;;;1.17;1.17;;;11.10;99.90;;;;;;4842018;29;20449;-60
2024/03/04 10:49:52;;;;;;;0.93;0.93;;;11.00;99.90;;;;;;4842366;29;20946;-60
2024/03/04 10:52:18;;;;;;;0.50;0.50;;;11.00;99.90;;;;;;4842398;29;20217;-60
2024/03/04 10:54:44;;;;;;;0.40;0.40;;;11.00;99.90;;;;;;4841982;29;20916;-60
2024/03/04 10:57:27;;;;;;;1.07;0.97;;;11.00;99.90;;;;;;4842159;29;20205;-59
2024/03/04 11:00:17;;;;;;;0.40;0.40;;;11.00;99.90;;;;;;4842226;29;20402;-60
2024/03/04 11:03:12;;;;;;;1.13;0.87;;;11.00;99.90;;;;;;4842490;29;20832;-60
2024/03/04 11:05:43;;;;;;;0.30;0.30;;;11.00;99.90;;;;;;4840320;29;20860;-60
2024/03/04 11:08:48;;;;;;;0.30;0.30;;;10.90;99.90;;;;;;4841874;29;20403;-60
2024/03/04 11:11:18;;;;;;;0.40;0.40;;;10.90;99.90;;;;;;4785714;30;20486;-60
2024/03/04 11:13:53;;;;;;;0.30;0.30;;;10.80;99.90;;;;;;4831407;29;20403;-60
2024/03/04 11:16:28;;;;;;;1.03;0.47;;;10.80;99.90;;;;;;4841280;29;20474;-61
2024/03/04 11:19:20;;;;;;;0.87;0.87;;;10.90;99.90;;;;;;4825478;29;20417;-59
2024/03/04 11:21:47;;;;;;;0.30;0.30;;;10.80;99.90;;;;;;4842067;29;20919;-60
2024/03/04 11:24:13;;;;;;;0.80;0.80;;;10.80;99.90;;;;;;4841841;29;20943;-60
2024/03/04 11:26:41;;;;;;;0.60;0.60;;;10.90;99.90;;;;;;4841353;29;20459;-61
2024/03/04 11:29:07;;;;;;;1.57;1.50;;;10.90;99.90;;;;;;4841765;29;20428;-60
2024/03/04 11:31:33;;;;;;;2.03;0.77;;;10.90;99.90;;;;;;4841958;29;20489;-60
2024/03/04 11:34:05;;;;;;;0.30;0.30;;;10.90;99.90;;;;;;4841868;29;20404;-60
2024/03/04 11:36:34;;;;;;;0.50;0.50;;;10.90;99.90;;;;;;4844434;29;20216;-60
2024/03/04 11:39:03;;;;;;;1.27;0.50;;;10.90;99.90;;;;;;4846623;29;20396;-60
2024/03/04 11:41:48;;;;;;;0.67;0.67;;;10.90;99.90;;;;;;4863601;29;20395;-61
2024/03/04 11:44:19;;;;;;;1.37;0.43;;;11.00;99.90;;;;;;4860039;29;20403;-60
2024/03/04 11:46:45;;;;;;;0.40;0.40;;;11.00;99.90;;;;;;4844992;29;20486;-60
2024/03/04 11:49:44;;;;;;;1.03;0.50;;;11.00;99.90;;;;;;4845183;29;20420;-60
2024/03/04 11:52:14;;;;;;;0.37;0.37;;;11.10;99.90;;;;;;4841235;29;20220;-60
2024/03/04 11:54:47;;;;;;;0.60;0.60;;;11.10;99.90;;;;;;4844892;29;20386;-60
2024/03/04 11:57:14;;;;;;;0.40;0.40;;;11.00;99.90;;;;;;4845200;29;20479;-60
2024/03/04 11:59:41;;;;;;;0.33;0.33;;;11.00;99.90;;;;;;4852749;29;20420;-61
2024/03/04 12:02:11;;;;;;;0.40;0.40;;;11.00;99.90;;;;;;4846962;29;20519;-61
2024/03/04 12:04:38;;;;;;;0.30;0.30;;;11.00;99.90;;;;;;4846600;29;20780;-61
2024/03/04 12:07:05;;;;;;;0.30;0.30;;;11.00;99.90;;;;;;4863028;29;20438;-59
2024/03/04 12:09:33;;;;;;;0.40;0.40;;;11.00;99.90;;;;;;4863292;29;20402;-59
2024/03/04 12:11:59;;;;;;;0.30;0.30;;;11.10;99.90;;;;;;4846021;29;20428;-60
2024/03/04 12:14:25;;;;;;;0.70;0.70;;;11.00;99.90;;;;;;4844546;29;20418;-61
2024/03/04 12:16:50;;;;;;;0.60;0.60;;;11.00;99.90;;;;;;4844447;29;20215;-60
2024/03/04 12:19:16;;;;;;;0.30;0.30;;;11.00;99.90;;;;;;4844737;29;20183;-60
2024/03/04 12:21:43;;;;;;;1.13;1.13;;;11.00;99.90;;;;;;4855093;29;20589;-61
2024/03/04 12:24:09;;;;;;;0.53;0.53;;;10.90;99.90;;;;;;4863116;29;20183;-60
2024/03/04 12:26:35;;;;;;;0.30;0.30;;;10.90;99.90;;;;;;4862461;29;20810;-60
2024/03/04 12:29:08;;;;;;;0.30;0.30;;;11.00;99.90;;;;;;4863043;29;20327;-60
2024/03/04 12:31:37;;;;;;;0.30;0.30;;;11.00;99.90;;;;;;4862994;29;20412;-60
2024/03/04 12:34:04;;;;;;;0.30;0.30;;;11.10;99.90;;;;;;4862795;29;20406;-60
2024/03/04 12:36:29;;;;;;;1.90;0.90;;;11.10;99.90;;;;;;4851780;29;20451;-61
2024/03/04 12:38:56;;;;;;;0.43;0.40;;;11.10;99.90;;;;;;4844439;29;20421;-61
2024/03/04 12:41:26;;;;;;;0.30;0.30;;;11.10;99.90;;;;;;4844416;29;20914;-61
2024/03/04 12:43:55;;;;;;;0.30;0.30;;;11.00;99.90;;;;;;4844357;29;20403;-59
2024/03/04 12:46:22;;;;;;;0.50;0.50;;;11.10;99.90;;;;;;4843025;29;20454;-60
2024/03/04 12:48:47;;;;;;;0.30;0.30;;;11.10;99.90;;;;;;4827794;29;20403;-60
2024/03/04 12:51:15;;;;;;;0.30;0.27;;;11.00;99.90;;;;;;4854381;29;20409;-61
2024/03/04 12:53:42;;;;;;;0.30;0.30;;;11.10;99.90;;;;;;4862502;29;20183;-61
2024/03/04 12:56:07;;;;;;;0.37;0.37;;;11.00;99.90;;;;;;4861988;29;20491;-60
2024/03/04 12:58:33;;;;;;;0.80;0.77;;;11.00;99.90;;;;;;4845864;29;20458;-60
2024/03/04 13:01:02;;;;;;;0.50;0.40;;;10.90;99.90;;;;;;4848203;29;20212;-59
2024/03/04 13:03:27;;;;;;;0.30;0.30;;;10.90;99.90;;;;;;4844151;29;20660;-60
2024/03/04 13:05:53;;;;;;;0.67;0.50;;;10.90;99.90;;;;;;4843673;29;20421;-60
2024/03/04 13:08:19;;;;;;;0.80;0.60;;;10.90;99.90;;;;;;4843490;29;20511;-60
2024/03/04 13:10:45;;;;;;;0.30;0.30;;;10.80;99.90;;;;;;4843760;29;20444;-61
2024/03/04 13:13:11;;;;;;;0.30;0.30;;;10.90;99.90;;;;;;4827412;29;20435;-61
2024/03/04 13:15:40;;;;;;;0.33;0.33;;;10.80;99.90;;;;;;4856411;29;20623;-60
2024/03/04 13:18:10;;;;;;;0.57;0.53;;;10.80;99.90;;;;;;4861828;29;20311;-60
2024/03/04 13:20:37;;;;;;;0.40;0.40;;;10.80;99.90;;;;;;4862289;29;20426;-60
2024/03/04 13:23:03;;;;;;;0.30;0.30;;;10.80;99.90;;;;;;4845487;29;20445;-61
2024/03/04 13:25:29;;;;;;;0.40;0.40;;;10.80;99.90;;;;;;4850659;29;20508;-60
2024/03/04 13:27:55;;;;;;;0.40;0.40;;;10.90;99.90;;;;;;4843437;29;20490;-60
2024/03/04 13:30:21;;;;;;;0.30;0.30;;;11.00;99.90;;;;;;4843388;29;20677;-59
2024/03/04 13:32:47;;;;;;;0.30;0.30;;;11.00;99.90;;;;;;4843209;29;20428;-61
2024/03/04 13:35:13;;;;;;;0.40;0.40;;;11.00;99.90;;;;;;4842919;29;20421;-60
2024/03/04 13:37:39;;;;;;;1.03;1.03;;;10.90;99.90;;;;;;4843242;29;20228;-60
2024/03/04 13:40:06;;;;;;;0.30;0.20;;;10.90;99.90;;;;;;4852558;29;20942;-59
2024/03/04 13:42:31;;;;;;;0.57;0.57;;;10.80;99.90;;;;;;4844927;29;20431;-58
2024/03/04 13:44:57;;;;;;;2.67;0.77;;;10.70;99.90;;;;;;4861041;29;20414;-57
2024/03/04 13:47:22;;;;;;;1.20;1.20;;;10.70;99.90;;;;;;4861628;29;20213;-58
2024/03/04 13:49:48;;;;;;;0.30;0.30;;;10.60;99.90;;;;;;4861453;29;20349;-59
2024/03/04 13:52:14;;;;;;;0.30;0.30;;;10.60;99.90;;;;;;4861473;29;20227;-59
2024/03/04 13:54:40;;;;;;;0.80;0.80;;;10.70;99.90;;;;;;4852413;29;20178;-59
2024/03/04 13:57:09;;;;;;;0.40;0.40;;;10.70;99.90;;;;;;4842752;29;21041;-60
2024/03/04 13:59:35;;;;;;;0.40;0.40;;;10.70;99.90;;;;;;4843048;29;20522;-60
2024/03/04 14:02:02;;;;;;;0.30;0.27;;;10.70;99.90;;;;;;4843001;29;20807;-61
2024/03/04 14:04:27;;;;;;;0.30;0.30;;;10.70;99.90;;;;;;4842544;29;20499;-62
2024/03/04 14:06:56;;;;;;;0.30;0.20;;;10.80;99.90;;;;;;4842541;29;20518;-61
2024/03/04 14:09:22;;;;;;;0.30;0.27;;;10.90;99.90;;;;;;4850592;29;20425;-60
2024/03/04 14:11:51;;;;;;;0.50;0.50;;;11.00;99.90;;;;;;4861358;29;20427;-60
2024/03/04 14:14:17;;;;;;;0.50;0.50;;;11.00;99.90;;;;;;4861209;29;20418;-60
2024/03/04 14:16:44;;;;;;;0.50;0.50;;;11.10;99.90;;;;;;4860550;29;20470;-61
2024/03/04 14:19:10;;;;;;;0.30;0.30;;;11.10;99.90;;;;;;4861192;29;20421;-62
2024/03/04 14:21:35;;;;;;;0.50;0.50;;;11.00;99.90;;;;;;4860596;29;20413;-62
2024/03/04 14:24:01;;;;;;;0.30;0.20;;;10.90;99.90;;;;;;4842706;29;20206;-62
2024/03/04 14:26:27;;;;;;;0.30;0.27;;;10.90;99.90;;;;;;4842297;29;20204;-60
2024/03/04 14:28:53;;;;;;;1.40;0.60;;;11.00;99.90;;;;;;4842532;29;20195;-60
2024/03/04 14:31:19;;;;;;;0.57;0.57;;;10.90;99.90;;;;;;4842303;29;20944;-60
2024/03/04 14:33:46;;;;;;;0.30;0.30;;;10.90;99.90;;;;;;4842452;29;20416;-60
2024/03/04 14:36:12;;;;;;;0.30;0.30;;;10.90;99.90;;;;;;4841857;29;20212;-59
2024/03/04 14:38:39;;;;;;;0.30;0.30;;;10.80;99.90;;;;;;4841972;29;20427;-60
2024/03/04 14:41:05;;;;;;;0.30;0.30;;;10.80;99.90;;;;;;4842746;29;20396;-60
2024/03/04 14:43:32;;;;;;;0.30;0.30;;;10.80;99.90;;;;;;4842336;29;20424;-59
2024/03/04 14:45:58;;;;;;;0.30;0.30;;;10.70;99.90;;;;;;4825763;29;20448;-60
2024/03/04 14:48:24;;;;;;;0.40;0.40;;;10.80;99.90;;;;;;4840187;29;20436;-60
2024/03/04 14:50:49;;;;;;;0.50;0.50;;;10.70;99.90;;;;;;4840159;29;20691;-61
2024/03/04 14:53:15;;;;;;;0.30;0.30;;;10.80;99.90;;;;;;4840272;29;20180;-60
2024/03/04 14:55:41;;;;;;;0.30;0.30;;;10.80;99.90;;;;;;4839889;29;20744;-61
2024/03/04 14:58:07;;;;;;;0.30;0.30;;;10.80;99.90;;;;;;4840250;29;20182;-57
2024/03/04 15:00:34;;;;;;;0.30;0.30;;;10.80;99.90;;;;;;4840210;29;20453;-60
2024/03/04 15:03:02;;;;;;;1.57;0.93;;;10.80;99.90;;;;;;4842902;29;20724;-58
2024/03/04 15:05:28;;;;;;;0.30;0.30;;;10.80;99.90;;;;;;4859898;29;20435;-60
2024/03/04 15:07:53;;;;;;;0.30;0.30;;;10.80;99.90;;;;;;4860327;29;20446;-60
2024/03/04 15:10:19;;;;;;;0.30;0.30;;;10.80;99.90;;;;;;4862056;29;20426;-59
2024/03/04 15:12:45;;;;;;;0.30;0.30;;;10.90;99.90;;;;;;4864351;29;20615;-60
2024/03/04 15:15:11;;;;;;;0.30;0.30;;;10.90;99.90;;;;;;4863874;29;20256;-60
2024/03/04 15:17:37;;;;;;;0.30;0.30;;;10.90;99.90;;;;;;4851685;29;20278;-60
2024/03/04 15:20:08;;;;;;;0.30;0.30;;;10.90;99.90;;;;;;4845861;29;20421;-59
2024/03/04 15:22:34;;;;;;;0.40;0.40;;;10.90;99.90;;;;;;4846023;29;20460;-59
2024/03/04 15:25:00;;;;;;;0.40;0.40;;;10.80;99.90;;;;;;4845342;29;20388;-59
2024/03/04 15:27:25;;;;;;;0.37;0.37;;;10.70;99.90;;;;;;4845706;29;20211;-59
2024/03/04 15:29:51;;;;;;;0.30;0.30;;;10.70;99.90;;;;;;4845690;29;20342;-61
2024/03/04 15:32:16;;;;;;;0.43;0.43;;;10.70;99.90;;;;;;4845578;29;20608;-58
2024/03/04 15:34:42;;;;;;;0.93;0.50;;;10.60;99.90;;;;;;4845189;29;20247;-60
2024/03/04 15:37:10;;;;;;;1.03;0.47;;;10.60;99.90;;;;;;4845601;29;20214;-59
2024/03/04 15:39:39;;;;;;;0.50;0.50;;;10.50;99.90;;;;;;4828814;29;20191;-60
2024/03/04 15:42:05;;;;;;;2.63;1.80;;;10.50;99.90;;;;;;4845324;29;20477;-59
2024/03/04 15:44:32;;;;;;;0.50;0.50;;;10.50;99.90;;;;;;4850235;29;20418;-59
2024/03/04 15:46:58;;;;;;;0.40;0.40;;;10.40;99.90;;;;;;4863712;29;20446;-60
2024/03/04 15:49:23;;;;;;;0.40;0.40;;;10.30;99.90;;;;;;4842403;29;20434;-60
2024/03/04 15:51:49;;;;;;;0.30;0.30;;;10.30;99.90;;;;;;4845145;29;20420;-58
2024/03/04 15:54:15;;;;;;;0.33;0.33;;;10.30;99.90;;;;;;4845012;29;20575;-59
2024/03/04 15:56:42;;;;;;;0.30;0.30;;;10.30;99.90;;;;;;4844715;29;20222;-59
2024/03/04 15:59:08;;;;;;;0.30;0.30;;;10.30;99.90;;;;;;4845075;29;20480;-61
2024/03/04 16:01:33;;;;;;;0.30;0.30;;;10.30;99.90;;;;;;4845068;29;20446;-60
2024/03/04 16:03:59;;;;;;;0.37;0.37;;;10.20;99.90;;;;;;4847721;29;20496;-60
2024/03/04 16:06:32;;;;;;;0.30;0.30;;;10.20;99.90;;;;;;4862961;29;20217;-59
2024/03/04 16:08:58;;;;;;;0.30;0.30;;;10.20;99.90;;;;;;4863217;29;20188;-59
2024/03/04 16:11:23;;;;;;;0.73;0.73;;;10.10;99.90;;;;;;4863323;29;20546;-59
2024/03/04 16:13:49;;;;;;;0.80;0.80;;;10.10;99.90;;;;;;4863415;29;20914;-59
2024/03/04 16:16:14;;;;;;;0.30;0.30;;;10.10;99.90;;;;;;4862652;29;20209;-59
2024/03/04 16:18:41;;;;;;;0.80;0.80;;;10.10;99.90;;;;;;4862766;29;20190;-59
2024/03/04 16:21:07;;;;;;;0.40;0.40;;;10.00;99.90;;;;;;4862350;29;20186;-59
2024/03/04 16:23:32;;;;;;;0.30;0.30;;;10.00;99.90;;;;;;4846319;29;20193;-59
2024/03/04 16:25:58;;;;;;;0.30;0.30;;;10.00;99.90;;;;;;4846001;29;20539;-60
2024/03/04 16:28:24;;;;;;;0.30;0.30;;;9.90;99.90;;;;;;4862643;29;20186;-60
2024/03/04 16:30:49;;;;;;;0.37;0.37;;;9.90;99.90;;;;;;4846270;29;20288;-59
2024/03/04 16:33:15;;;;;;;0.30;0.30;;;9.80;99.90;;;;;;4862349;29;20691;-59
2024/03/04 16:35:41;;;;;;;0.40;0.40;;;9.90;99.90;;;;;;4862410;29;20294;-60
2024/03/04 16:38:09;;;;;;;0.30;0.30;;;9.90;99.90;;;;;;4862761;29;20271;-59
2024/03/04 16:40:35;;;;;;;0.30;0.30;;;9.90;99.90;;;;;;4862863;29;20433;-60
2024/03/04 16:43:02;;;;;;;0.30;0.30;;;9.80;99.90;;;;;;4862793;29;20640;-61
2024/03/04 16:45:30;;;;;;;0.30;0.30;;;9.80;99.90;;;;;;4862186;29;20185;-61
2024/03/04 16:47:55;;;;;;;0.30;0.30;;;9.80;99.90;;;;;;4851029;29;20196;-60
2024/03/04 16:50:21;;;;;;;0.30;0.30;;;9.80;99.90;;;;;;4844282;29;20639;-59
2024/03/04 16:52:46;;;;;;;1.53;0.87;;;9.80;99.90;;;;;;4843824;29;20523;-59
2024/03/04 16:55:12;;;;;;;0.30;0.30;;;9.80;99.90;;;;;;4843605;29;20205;-59
2024/03/04 16:57:38;;;;;;;0.70;0.70;;;9.70;99.90;;;;;;4843641;29;20212;-63
2024/03/04 17:00:08;;;;;;;0.90;0.90;;;9.70;99.90;;;;;;4850780;29;20272;-61
2024/03/04 17:02:34;;;;;;;0.35;0.35;;;9.70;99.90;;;;;;4862211;29;20301;-58
2024/03/04 17:04:59;;;;;;;0.30;0.30;;;9.60;99.90;;;;;;4861839;29;20206;-59
2024/03/04 17:07:25;;;;;;;0.30;0.30;;;9.60;99.90;;;;;;4862045;29;20219;-61
2024/03/04 17:09:51;;;;;;;0.52;0.52;;;9.60;99.90;;;;;;4862320;29;20549;-61
2024/03/04 17:12:18;;;;;;;0.63;0.63;;;9.60;99.90;;;;;;4862271;29;20176;-59
2024/03/04 17:14:44;;;;;;;0.35;0.35;;;9.50;99.90;;;;;;4854816;29;20193;-60
2024/03/04 17:17:11;;;;;;;0.40;0.40;;;9.50;99.90;;;;;;4843583;29;20269;-60
2024/03/04 17:19:40;;;;;;;1.10;1.10;;;9.50;99.90;;;;;;4843473;29;20184;-59
2024/03/04 17:22:07;;;;;;;0.30;0.30;;;9.50;99.90;;;;;;4843702;29;20176;-58
2024/03/04 17:24:32;;;;;;;0.30;0.30;;;9.50;99.90;;;;;;4843236;29;20586;-61
2024/03/04 17:26:58;;;;;;;0.30;0.30;;;9.50;99.90;;;;;;4826822;29;20283;-59
2024/03/04 17:29:23;;;;;;;0.30;0.30;;;9.50;99.90;;;;;;4843412;29;20709;-58
2024/03/04 17:31:49;;;;;;;0.40;0.40;;;9.50;99.90;;;;;;4843405;29;20264;-58
2024/03/04 17:34:15;;;;;;;0.40;0.40;;;9.50;99.90;;;;;;4842930;29;20187;-57
2024/03/04 17:36:42;;;;;;;0.87;0.87;;;9.50;99.90;;;;;;4842662;29;20498;-59
2024/03/04 17:39:08;;;;;;;0.40;0.40;;;9.50;99.90;;;;;;4843248;29;20177;-58
2024/03/04 17:41:34;;;;;;;0.30;0.20;;;9.50;99.90;;;;;;4843122;29;20181;-59
2024/03/04 17:44:00;;;;;;;0.93;0.75;;;9.50;99.90;;;;;;4842973;29;20418;-61
2024/03/04 17:46:26;;;;;;;0.30;0.30;;;9.50;99.90;;;;;;4842842;29;20213;-59
2024/03/04 17:48:51;;;;;;;0.30;0.30;;;9.50;99.90;;;;;;4842914;29;20517;-59
2024/03/04 17:51:17;;;;;;;0.30;0.30;;;9.50;99.90;;;;;;4843078;29;20235;-55
2024/03/04 17:53:42;;;;;;;0.30;0.30;;;9.50;99.90;;;;;;4842933;29;20540;-57
2024/03/04 17:56:09;;;;;;;0.30;0.30;;;9.50;99.90;;;;;;4842073;29;20764;-58
2024/03/04 17:58:34;;;;;;;0.60;0.60;;;9.50;99.90;;;;;;4842700;29;20170;-55